EHGR/GLZ METAR and TAF weather

Enter ICAO airport designator
Station Type Date Time Source
EHGR METAR 2020/01/23 08:57 UTC NOAA

EHGR 230857Z AUTO 12004KT 090V150 4200 BR OVC021 04/03 Q1033 GRN 10004KT 4000 BR FEW006 BKN025


Station Type Date Time Source
EHGR Decoded METAR 2020/01/23 08:57 UTC NOAA

Gilze-Rijen, Netherlands (EHGR) 51-34N 004-56E 24M
Jan 23, 2020 - 03:57 AM EST / 2020.01.23 0857 UTC
Wind: from the ESE (120 degrees) at 5 MPH (4 KT) (direction variable):0
Visibility: 2 mile(s):0
Sky conditions: overcast
Weather: mist
Temperature: 39 F (4 C)
Dew Point: 37 F (3 C)
Relative Humidity: 93%
Pressure (altimeter): 30.50 in. Hg (1033 hPa)
ob: EHGR 230857Z AUTO 12004KT 090V150 4200 BR OVC021 04/03 Q1033 GRN 10004KT 4000 BR FEW006 BKN025
cycle: 9

Station Type Date Time Source
EHGR TAF 2020/01/23 06:54 UTC NOAA

TAF TAF EHGR 230442Z 2306/2318 08003KT 1200 BR SCT002 BKN003
TEMPO 2306/2310 0300 FG OVC000
BECMG 2310/2312 4500 BR SCT004 BKN008
BECMG 2312/2315 5000 NSW BKN008 PROB40
TEMPO 2312/2318 FEW012 BKN016

Example: see airport list